createdAt,value
2018-05-13T00:00:35.169Z,99.90
2018-05-13T00:03:05.772Z,99.90
2018-05-13T00:05:35.560Z,99.90
2018-05-13T00:08:05.544Z,99.90
2018-05-13T00:10:35.310Z,99.90
2018-05-13T00:13:05.073Z,99.90
2018-05-13T00:15:34.850Z,99.90
2018-05-13T00:18:04.308Z,99.90
2018-05-13T00:20:34.090Z,99.90
2018-05-13T00:23:04.647Z,99.90
2018-05-13T00:25:34.409Z,99.90
2018-05-13T00:28:04.649Z,99.90
2018-05-13T00:30:35.213Z,99.90
2018-05-13T00:33:04.657Z,99.90
2018-05-13T00:35:34.473Z,99.90
2018-05-13T00:38:03.620Z,99.90
2018-05-13T00:40:33.091Z,99.90
2018-05-13T00:43:03.654Z,99.90
2018-05-13T00:45:33.412Z,99.90
2018-05-13T00:48:03.346Z,99.90
2018-05-13T00:50:33.932Z,99.90
2018-05-13T00:53:03.584Z,99.90
2018-05-13T00:55:33.350Z,99.90
2018-05-13T00:58:03.165Z,99.90
2018-05-13T01:00:32.948Z,99.90
2018-05-13T01:03:02.947Z,99.90
2018-05-13T01:05:32.448Z,99.90
2018-05-13T01:08:03.017Z,99.90
2018-05-13T01:10:32.856Z,99.90
2018-05-13T01:13:02.635Z,99.90
2018-05-13T01:15:32.440Z,99.90
2018-05-13T01:18:02.957Z,99.90
2018-05-13T01:20:33.497Z,99.90
2018-05-13T01:23:04.079Z,99.90
2018-05-13T01:25:33.843Z,99.90
2018-05-13T01:28:03.620Z,99.90
2018-05-13T01:30:33.384Z,99.90
2018-05-13T01:33:03.145Z,99.90
2018-05-13T01:35:32.986Z,99.90
2018-05-13T01:38:03.602Z,99.90
2018-05-13T01:40:33.360Z,99.90
2018-05-13T01:43:03.115Z,99.90
2018-05-13T01:45:32.650Z,99.90
2018-05-13T01:48:03.208Z,99.90
2018-05-13T01:50:33.037Z,99.90
2018-05-13T01:53:02.836Z,99.90
2018-05-13T01:55:32.650Z,99.90
2018-05-13T01:58:02.437Z,99.90
2018-05-13T02:00:32.084Z,99.90
2018-05-13T02:03:01.856Z,99.90
2018-05-13T02:05:31.669Z,99.90
2018-05-13T02:08:02.244Z,99.90
2018-05-13T02:10:32.058Z,99.90
2018-05-13T02:13:01.832Z,99.90
2018-05-13T02:15:31.600Z,99.90
2018-05-13T02:18:01.367Z,99.90
2018-05-13T02:20:31.168Z,99.90
2018-05-13T02:23:00.983Z,99.90
2018-05-13T02:25:30.756Z,99.90
2018-05-13T02:28:00.575Z,99.90
2018-05-13T02:30:30.399Z,99.90
2018-05-13T02:33:00.943Z,99.90
2018-05-13T02:35:30.737Z,99.90
2018-05-13T02:38:01.294Z,99.90
2018-05-13T02:40:31.102Z,99.90
2018-05-13T02:43:01.668Z,99.90
2018-05-13T02:45:31.138Z,99.90
2018-05-13T02:48:00.946Z,99.90
2018-05-13T02:50:31.544Z,99.90
2018-05-13T02:53:01.304Z,99.90
2018-05-13T02:55:31.089Z,99.90
2018-05-13T02:58:01.641Z,99.90
2018-05-13T03:00:31.424Z,99.90
2018-05-13T03:03:01.943Z,99.90
2018-05-13T03:05:31.725Z,99.90
2018-05-13T03:08:01.482Z,99.90
2018-05-13T03:10:32.058Z,99.90
2018-05-13T03:13:01.886Z,99.90
2018-05-13T03:15:31.672Z,99.90
2018-05-13T03:18:01.538Z,99.90
2018-05-13T03:20:32.841Z,99.90
2018-05-13T03:23:02.319Z,99.90
2018-05-13T03:25:32.842Z,99.90
2018-05-13T03:28:03.424Z,99.90
2018-05-13T03:30:33.210Z,99.90
2018-05-13T03:33:03.000Z,99.90
2018-05-13T03:35:32.614Z,99.90
2018-05-13T03:38:03.193Z,99.90
2018-05-13T03:40:32.946Z,99.90
2018-05-13T03:43:02.457Z,99.90
2018-05-13T03:45:33.001Z,99.90
2018-05-13T03:48:03.548Z,99.90
2018-05-13T03:50:33.359Z,99.90
2018-05-13T03:53:03.152Z,99.90
2018-05-13T03:55:33.776Z,99.90
2018-05-13T03:58:04.022Z,99.90
2018-05-13T04:00:33.824Z,99.90
2018-05-13T04:03:04.023Z,99.90
2018-05-13T04:05:33.599Z,99.90
2018-05-13T04:11:22.103Z,99.90
2018-05-13T04:14:02.710Z,99.90
2018-05-13T04:16:32.240Z,99.90
2018-05-13T04:19:02.004Z,99.90
2018-05-13T04:21:32.663Z,99.90
2018-05-13T04:24:02.555Z,99.90
2018-05-13T04:26:32.357Z,99.90
2018-05-13T04:29:02.962Z,99.90
2018-05-13T04:31:32.730Z,99.90
2018-05-13T04:34:02.572Z,99.90
2018-05-13T04:36:32.364Z,99.90
2018-05-13T04:39:02.156Z,99.90
2018-05-13T04:41:31.722Z,99.90
2018-05-13T04:44:01.517Z,99.90
2018-05-13T04:46:31.374Z,99.90
2018-05-13T04:49:01.904Z,99.90
2018-05-13T04:51:32.480Z,99.90
2018-05-13T04:54:02.279Z,99.90
2018-05-13T04:56:32.072Z,99.90
2018-05-13T04:59:02.627Z,99.90
2018-05-13T05:01:32.386Z,99.90
2018-05-13T05:04:02.185Z,99.90
2018-05-13T05:06:31.960Z,99.90
2018-05-13T05:09:01.528Z,99.90
2018-05-13T05:11:30.950Z,99.90
2018-05-13T05:14:00.473Z,99.90
2018-05-13T05:16:29.980Z,99.90
2018-05-13T05:18:59.515Z,99.90
2018-05-13T05:21:28.994Z,99.90
2018-05-13T05:23:58.501Z,99.90
2018-05-13T05:26:27.984Z,99.90
2018-05-13T05:28:57.552Z,99.90
2018-05-13T05:31:27.832Z,99.90
2018-05-13T05:33:57.366Z,99.90
2018-05-13T05:36:26.870Z,99.90
2018-05-13T05:38:56.371Z,99.90
2018-05-13T05:41:25.876Z,99.90
2018-05-13T05:43:55.399Z,99.90
2018-05-13T05:46:25.916Z,99.90
2018-05-13T05:48:55.565Z,99.90
2018-05-13T05:51:25.059Z,99.90
2018-05-13T05:53:54.567Z,99.90
2018-05-13T05:56:24.070Z,99.90
2018-05-13T05:58:53.592Z,99.90
2018-05-13T06:01:23.147Z,99.90
2018-05-13T06:03:52.672Z,99.90
2018-05-13T06:06:22.202Z,99.90
2018-05-13T06:08:51.703Z,99.90
2018-05-13T06:11:21.993Z,99.90
2018-05-13T06:13:53.039Z,99.90
2018-05-13T06:16:22.525Z,99.90
2018-05-13T06:18:52.101Z,99.90
2018-05-13T06:21:21.634Z,99.90
2018-05-13T06:23:51.761Z,99.90
2018-05-13T06:26:21.266Z,99.90
2018-05-13T06:28:50.767Z,99.90
2018-05-13T06:31:20.274Z,99.90
2018-05-13T06:33:49.823Z,99.90
2018-05-13T06:36:20.056Z,99.90
2018-05-13T06:38:49.340Z,99.90
2018-05-13T06:41:19.265Z,99.90
2018-05-13T06:43:48.816Z,99.90
2018-05-13T06:46:18.313Z,99.90
2018-05-13T06:48:47.828Z,99.90
2018-05-13T06:51:17.462Z,99.90
2018-05-13T06:53:47.152Z,99.90
2018-05-13T06:56:16.692Z,99.90
2018-05-13T06:58:46.239Z,99.90
2018-05-13T07:01:15.776Z,99.90
2018-05-13T07:03:45.255Z,99.90
2018-05-13T07:06:14.727Z,99.90
2018-05-13T07:08:44.999Z,99.90
2018-05-13T07:11:14.498Z,99.90
2018-05-13T07:13:44.038Z,99.90
2018-05-13T07:16:13.541Z,99.90
2018-05-13T07:18:43.069Z,99.90
2018-05-13T07:21:12.539Z,99.90
2018-05-13T07:23:42.065Z,99.90
2018-05-13T07:26:10.959Z,99.90
2018-05-13T07:28:40.456Z,99.90
2018-05-13T07:31:09.958Z,99.90
2018-05-13T07:33:39.465Z,99.90
2018-05-13T07:36:09.467Z,99.90
2018-05-13T07:38:38.679Z,99.90
2018-05-13T07:41:08.241Z,98.60
2018-05-13T07:43:37.765Z,96.30
2018-05-13T07:46:07.285Z,94.70
2018-05-13T07:48:37.164Z,92.60
2018-05-13T07:51:06.715Z,90.20
2018-05-13T07:53:36.210Z,87.70
2018-05-13T07:56:05.359Z,87.20
2018-05-13T07:58:34.997Z,81.00
2018-05-13T08:01:04.535Z,79.20
2018-05-13T08:03:34.145Z,77.40
2018-05-13T08:06:03.626Z,80.10
2018-05-13T08:08:33.331Z,69.30
2018-05-13T08:11:02.821Z,66.70
2018-05-13T08:13:32.074Z,64.60
2018-05-13T08:16:01.630Z,62.80
2018-05-13T08:18:32.153Z,62.10
2018-05-13T08:21:01.660Z,60.70
2018-05-13T08:23:31.152Z,62.60
2018-05-13T08:26:00.649Z,58.70
2018-05-13T08:28:30.767Z,58.50
2018-05-13T08:31:01.053Z,56.40
2018-05-13T08:33:30.584Z,56.50
2018-05-13T08:36:00.103Z,54.70
2018-05-13T08:38:30.401Z,53.60
2018-05-13T08:40:59.987Z,53.50
2018-05-13T08:43:29.448Z,53.50
2018-05-13T08:46:00.148Z,49.90
2018-05-13T08:48:29.840Z,50.00
2018-05-13T08:50:59.445Z,48.30
2018-05-13T08:53:28.972Z,48.50
2018-05-13T08:55:58.475Z,47.80
2018-05-13T08:58:27.956Z,47.20
2018-05-13T09:00:57.476Z,46.00
2018-05-13T09:03:26.981Z,46.50
2018-05-13T09:05:56.510Z,44.00
2018-05-13T09:08:26.023Z,46.60
2018-05-13T09:10:55.744Z,44.10
2018-05-13T09:13:26.263Z,41.80
2018-05-13T09:15:56.528Z,42.30
2018-05-13T09:18:26.010Z,42.10
2018-05-13T09:20:56.279Z,39.90
2018-05-13T09:23:26.009Z,39.90
2018-05-13T09:25:55.516Z,40.50
2018-05-13T09:28:25.003Z,39.40
2018-05-13T09:30:54.532Z,39.90
2018-05-13T09:33:24.017Z,39.60
2018-05-13T09:35:53.521Z,38.20
2018-05-13T09:38:22.818Z,39.40
2018-05-13T09:40:52.290Z,38.00
2018-05-13T09:43:21.832Z,38.80
2018-05-13T09:45:51.356Z,38.70
2018-05-13T09:48:21.037Z,38.00
2018-05-13T09:50:50.533Z,36.60
2018-05-13T09:53:20.044Z,37.30
2018-05-13T09:55:49.574Z,36.60
2018-05-13T09:58:19.074Z,38.30
2018-05-13T10:00:48.589Z,38.60
2018-05-13T10:03:18.051Z,38.30
2018-05-13T10:05:47.561Z,37.00
2018-05-13T10:08:16.805Z,36.40
2018-05-13T10:10:47.784Z,36.70
2018-05-13T10:13:17.321Z,36.70
2018-05-13T10:15:46.796Z,36.70
2018-05-13T10:18:16.338Z,34.30
2018-05-13T10:20:45.821Z,35.10
2018-05-13T10:23:15.396Z,35.80
2018-05-13T10:25:44.883Z,34.80
2018-05-13T10:28:14.415Z,32.30
2018-05-13T10:30:44.683Z,32.80
2018-05-13T10:33:14.155Z,32.80
2018-05-13T10:35:44.468Z,30.00
2018-05-13T10:38:14.743Z,30.00
2018-05-13T10:40:44.265Z,29.90
2018-05-13T10:43:13.775Z,29.60
2018-05-13T10:45:43.288Z,29.40
2018-05-13T10:48:12.761Z,30.00
2018-05-13T10:50:42.377Z,29.10
2018-05-13T10:53:11.837Z,29.60
2018-05-13T10:55:42.129Z,28.70
2018-05-13T10:58:11.668Z,28.70
2018-05-13T11:00:41.929Z,27.20
2018-05-13T11:03:11.462Z,27.20
2018-05-13T11:05:40.953Z,28.20
2018-05-13T11:08:10.444Z,27.80
2018-05-13T11:10:39.953Z,27.90
2018-05-13T11:13:09.468Z,28.20
2018-05-13T11:15:39.000Z,27.50
2018-05-13T11:18:08.503Z,26.50
2018-05-13T11:20:38.002Z,26.50
2018-05-13T11:23:07.540Z,26.40
2018-05-13T11:25:37.004Z,25.80
2018-05-13T11:28:06.507Z,26.30
2018-05-13T11:30:35.665Z,27.00
2018-05-13T11:33:05.162Z,26.40
2018-05-13T11:35:35.407Z,24.50
2018-05-13T11:38:04.541Z,24.50
2018-05-13T11:40:34.039Z,24.00
2018-05-13T11:43:03.561Z,25.20
2018-05-13T11:45:33.573Z,24.90
2018-05-13T11:48:03.098Z,24.90
2018-05-13T11:50:32.608Z,24.90
2018-05-13T11:53:02.928Z,23.80
2018-05-13T11:55:32.463Z,23.80
2018-05-13T11:58:02.002Z,23.40
2018-05-13T12:00:31.509Z,23.90
2018-05-13T12:03:01.055Z,24.50
2018-05-13T12:05:30.273Z,24.40
2018-05-13T12:07:59.782Z,24.60
2018-05-13T12:10:29.256Z,24.60
2018-05-13T12:12:58.803Z,24.10
2018-05-13T12:15:28.293Z,23.40
2018-05-13T12:17:58.577Z,23.30
2018-05-13T12:20:28.069Z,23.20
2018-05-13T12:22:57.591Z,23.10
2018-05-13T12:25:27.323Z,23.50
2018-05-13T12:27:57.694Z,23.20
2018-05-13T12:30:27.369Z,23.20
2018-05-13T12:32:57.630Z,24.50
2018-05-13T12:35:27.128Z,24.50
2018-05-13T12:37:56.628Z,24.30
2018-05-13T12:40:25.826Z,24.00
2018-05-13T12:42:55.641Z,23.50
2018-05-13T12:45:25.181Z,23.20
2018-05-13T12:47:54.643Z,22.80
2018-05-13T12:50:24.131Z,22.90
2018-05-13T12:52:54.379Z,23.50
2018-05-13T12:55:23.894Z,23.50
2018-05-13T12:57:53.400Z,23.60
2018-05-13T13:00:22.908Z,22.60
2018-05-13T13:02:52.416Z,23.00
2018-05-13T13:05:21.892Z,22.60
2018-05-13T13:07:51.370Z,22.00
2018-05-13T13:10:21.471Z,22.40
2018-05-13T13:12:51.007Z,22.40
2018-05-13T13:15:20.970Z,23.50
2018-05-13T13:17:50.472Z,23.40
2018-05-13T13:20:20.376Z,23.90
2018-05-13T13:22:50.409Z,23.80
2018-05-13T13:25:19.914Z,23.70
2018-05-13T13:27:49.436Z,24.10
2018-05-13T13:30:18.945Z,22.90
2018-05-13T13:32:48.228Z,22.90
2018-05-13T13:35:17.744Z,23.10
2018-05-13T13:37:47.276Z,24.20
2018-05-13T13:40:16.776Z,23.90
2018-05-13T13:42:45.967Z,23.90
2018-05-13T13:45:15.195Z,24.20
2018-05-13T13:47:44.726Z,23.00
2018-05-13T13:50:15.034Z,23.00
2018-05-13T13:52:44.540Z,23.00
2018-05-13T13:55:14.022Z,23.10
2018-05-13T13:57:43.524Z,23.20
2018-05-13T14:00:13.132Z,23.80
2018-05-13T14:02:42.668Z,23.40
2018-05-13T14:05:12.180Z,24.30
2018-05-13T14:07:42.560Z,23.10
2018-05-13T14:10:12.084Z,23.10
2018-05-13T14:12:41.556Z,23.80
2018-05-13T14:15:11.073Z,24.20
2018-05-13T14:17:40.581Z,24.50
2018-05-13T14:20:10.110Z,25.70
2018-05-13T14:22:39.767Z,26.80
2018-05-13T14:25:08.927Z,27.00
2018-05-13T14:27:38.402Z,28.30
2018-05-13T14:30:07.925Z,28.50
2018-05-13T14:32:37.391Z,29.30
2018-05-13T14:35:07.127Z,29.90
2018-05-13T14:37:36.631Z,30.40
2018-05-13T14:40:06.106Z,31.30
2018-05-13T14:42:35.608Z,31.70
2018-05-13T14:45:04.528Z,31.70
2018-05-13T14:47:34.049Z,32.20
2018-05-13T14:50:03.571Z,32.30
2018-05-13T14:52:33.295Z,32.90
2018-05-13T14:55:03.548Z,32.70
2018-05-13T14:57:33.041Z,32.60
2018-05-13T15:00:02.576Z,32.50
2018-05-13T15:02:32.051Z,32.80
2018-05-13T15:05:02.334Z,32.80
2018-05-13T15:07:32.485Z,32.80
2018-05-13T15:10:01.977Z,33.20
2018-05-13T15:12:31.572Z,33.30
2018-05-13T15:15:01.063Z,33.90
2018-05-13T15:17:30.564Z,33.20
2018-05-13T15:20:00.082Z,32.90
2018-05-13T15:22:34.454Z,33.20
2018-05-13T15:25:03.488Z,33.00
2018-05-13T15:27:32.705Z,33.40
2018-05-13T15:30:01.889Z,33.70
2018-05-13T15:32:31.344Z,33.90
2018-05-13T15:35:00.870Z,33.60
2018-05-13T15:37:30.378Z,33.00
2018-05-13T15:39:59.895Z,33.50
2018-05-13T15:42:29.479Z,33.00
2018-05-13T15:44:59.098Z,33.30
2018-05-13T15:47:28.280Z,33.40
2018-05-13T15:49:57.578Z,33.60
2018-05-13T15:52:26.752Z,33.70
2018-05-13T15:54:56.294Z,34.10
2018-05-13T15:57:25.638Z,34.10
2018-05-13T15:59:55.105Z,34.40
2018-05-13T16:02:24.349Z,33.70
2018-05-13T16:04:53.816Z,33.90
2018-05-13T16:07:23.307Z,33.90
2018-05-13T16:09:52.805Z,34.00
2018-05-13T16:12:22.325Z,34.10
2018-05-13T16:14:51.809Z,34.50
2018-05-13T16:17:22.097Z,35.10
2018-05-13T16:19:51.592Z,35.10
2018-05-13T16:22:21.052Z,35.40
2018-05-13T16:24:49.995Z,35.50
2018-05-13T16:27:19.501Z,35.40
2018-05-13T16:29:48.996Z,35.30
2018-05-13T16:32:18.484Z,35.80
2018-05-13T16:34:48.014Z,36.20
2018-05-13T16:37:17.508Z,35.70
2018-05-13T16:39:48.245Z,35.30
2018-05-13T16:42:17.468Z,35.30
2018-05-13T16:44:46.972Z,35.10
2018-05-13T16:47:16.967Z,34.90
2018-05-13T16:49:46.519Z,34.90
2018-05-13T16:52:16.763Z,35.70
2018-05-13T16:54:46.312Z,35.70
2018-05-13T16:57:15.852Z,36.40
2018-05-13T16:59:46.163Z,36.40
2018-05-13T17:02:15.670Z,36.40
2018-05-13T17:04:44.920Z,37.30
2018-05-13T17:07:14.448Z,37.10
2018-05-13T17:09:43.968Z,36.70
2018-05-13T17:12:13.965Z,36.90
2018-05-13T17:14:43.183Z,36.90
2018-05-13T17:17:12.877Z,36.90
2018-05-13T17:19:42.262Z,36.90
2018-05-13T17:22:11.513Z,36.90
2018-05-13T17:24:40.728Z,36.90
2018-05-13T17:27:09.917Z,37.30
2018-05-13T17:29:39.165Z,37.40
2018-05-13T17:32:08.059Z,37.60
2018-05-13T17:34:37.345Z,37.80
2018-05-13T17:37:06.824Z,37.80
2018-05-13T17:39:37.106Z,38.30
2018-05-13T17:42:06.351Z,38.30
2018-05-13T17:44:36.651Z,38.40
2018-05-13T17:47:06.629Z,38.30
2018-05-13T17:49:35.881Z,38.30
2018-05-13T17:52:05.246Z,39.20
2018-05-13T17:54:35.238Z,39.30
2018-05-13T17:57:04.830Z,39.30
2018-05-13T17:59:34.027Z,39.10
2018-05-13T18:02:03.298Z,39.10
2018-05-13T18:04:32.938Z,40.00
2018-05-13T18:07:02.148Z,39.60
2018-05-13T18:09:31.680Z,39.20
2018-05-13T18:12:00.936Z,39.90
2018-05-13T18:14:30.161Z,39.80
2018-05-13T18:16:59.399Z,39.90
2018-05-13T18:19:28.928Z,40.40
2018-05-13T18:21:59.175Z,40.00
2018-05-13T18:24:28.463Z,39.90
2018-05-13T18:26:58.097Z,40.80
2018-05-13T18:29:27.280Z,40.60
2018-05-13T18:31:56.542Z,40.80
2018-05-13T18:34:26.520Z,41.20
2018-05-13T18:36:57.275Z,41.70
2018-05-13T18:39:27.254Z,41.60
2018-05-13T18:41:56.459Z,41.60
2018-05-13T18:44:25.709Z,41.60
2018-05-13T18:46:55.704Z,41.30
2018-05-13T18:49:24.951Z,41.30
2018-05-13T18:51:54.014Z,42.50
2018-05-13T18:54:24.009Z,42.40
2018-05-13T18:56:53.578Z,42.40
2018-05-13T18:59:22.808Z,42.50
2018-05-13T19:01:52.081Z,42.30
2018-05-13T19:04:21.302Z,42.30
2018-05-13T19:06:50.553Z,42.30
2018-05-13T19:09:19.810Z,42.50
2018-05-13T19:11:49.062Z,43.40
2018-05-13T19:14:18.302Z,42.90
2018-05-13T19:16:47.499Z,43.00
2018-05-13T19:19:16.700Z,43.30
2018-05-13T19:21:47.411Z,43.60
2018-05-13T19:24:16.612Z,43.50
2018-05-13T19:26:45.875Z,43.90
2018-05-13T19:29:15.127Z,44.10
2018-05-13T19:31:44.315Z,44.40
2018-05-13T19:34:13.776Z,44.70
2018-05-13T19:36:43.739Z,45.10
2018-05-13T19:39:12.642Z,45.10
2018-05-13T19:41:43.372Z,45.90
2018-05-13T19:44:12.689Z,45.80
2018-05-13T19:46:41.922Z,46.50
2018-05-13T19:49:11.898Z,46.60
2018-05-13T19:51:41.137Z,46.60
2018-05-13T19:54:10.357Z,46.80
2018-05-13T19:56:39.596Z,47.30
2018-05-13T19:59:08.781Z,47.90
2018-05-13T20:01:38.007Z,47.80
2018-05-13T20:04:07.209Z,48.10
2018-05-13T20:06:37.228Z,48.70
2018-05-13T20:09:06.884Z,48.60
2018-05-13T20:11:36.353Z,48.60
2018-05-13T20:14:06.323Z,49.70
2018-05-13T20:16:35.579Z,49.70
2018-05-13T20:19:04.535Z,49.60
2018-05-13T20:21:34.061Z,50.30
2018-05-13T20:24:04.073Z,50.30
2018-05-13T20:26:34.092Z,50.30
2018-05-13T20:29:04.126Z,50.70
2018-05-13T20:31:33.370Z,50.70
2018-05-13T20:34:02.603Z,50.80
2018-05-13T20:36:32.627Z,51.40
2018-05-13T20:39:01.878Z,51.10
2018-05-13T20:41:31.060Z,51.20
2018-05-13T20:44:00.713Z,51.80
2018-05-13T20:46:30.837Z,53.00
2018-05-13T20:49:00.107Z,52.30
2018-05-13T20:51:29.320Z,52.80
2018-05-13T20:53:58.574Z,52.80
2018-05-13T20:56:27.766Z,53.60
2018-05-13T20:58:57.053Z,53.70
2018-05-13T21:01:27.054Z,54.60
2018-05-13T21:03:56.320Z,54.50
2018-05-13T21:06:25.511Z,54.10
2018-05-13T21:08:54.784Z,54.40
2018-05-13T21:11:24.816Z,55.10
2018-05-13T21:13:54.024Z,55.20
2018-05-13T21:16:23.271Z,55.70
2018-05-13T21:18:52.497Z,56.30
2018-05-13T21:21:22.487Z,56.90
2018-05-13T21:23:51.706Z,56.90
2018-05-13T21:26:21.736Z,58.40
2018-05-13T21:28:50.935Z,58.40
2018-05-13T21:31:20.143Z,59.30
2018-05-13T21:33:49.407Z,60.00
2018-05-13T21:36:18.634Z,60.90
2018-05-13T21:38:47.933Z,63.20
2018-05-13T21:41:17.252Z,63.30
2018-05-13T21:43:46.494Z,64.90
2018-05-13T21:46:15.748Z,67.20
2018-05-13T21:48:44.990Z,68.90
2018-05-13T21:51:14.466Z,71.20
2018-05-13T21:53:43.666Z,72.70
2018-05-13T21:56:12.889Z,75.60
2018-05-13T21:58:42.118Z,78.40
2018-05-13T22:01:12.148Z,84.00
2018-05-13T22:03:42.160Z,85.20
2018-05-13T22:06:12.144Z,85.90
2018-05-13T22:08:41.355Z,85.80
2018-05-13T22:11:10.855Z,89.80
2018-05-13T22:13:40.102Z,91.00
2018-05-13T22:16:09.373Z,92.70
2018-05-13T22:18:38.614Z,93.80
2018-05-13T22:21:08.880Z,96.10
2018-05-13T22:23:39.610Z,97.50
2018-05-13T22:26:08.791Z,97.60
2018-05-13T22:28:38.049Z,98.10
2018-05-13T22:31:07.289Z,96.90
2018-05-13T22:33:36.522Z,99.70
2018-05-13T22:36:05.760Z,99.90
2018-05-13T22:38:35.016Z,99.90
2018-05-13T22:41:04.225Z,99.90
2018-05-13T22:43:34.232Z,99.90
2018-05-13T22:46:03.448Z,99.90
2018-05-13T22:48:33.458Z,99.90
2018-05-13T22:51:03.467Z,99.90
2018-05-13T22:53:32.717Z,99.90
2018-05-13T22:56:01.950Z,99.90
2018-05-13T22:58:31.485Z,99.90
2018-05-13T23:01:01.514Z,99.90
2018-05-13T23:03:31.025Z,99.90
2018-05-13T23:06:00.520Z,99.90
2018-05-13T23:08:30.467Z,99.90
2018-05-13T23:11:00.740Z,99.90
2018-05-13T23:13:30.272Z,99.90
2018-05-13T23:15:59.796Z,99.90
2018-05-13T23:18:30.270Z,99.90
2018-05-13T23:20:59.807Z,99.90
2018-05-13T23:23:29.313Z,99.90
2018-05-13T23:25:58.848Z,99.90
2018-05-13T23:28:29.085Z,99.90
2018-05-13T23:30:58.816Z,99.90
2018-05-13T23:33:28.365Z,99.90
2018-05-13T23:35:57.513Z,99.90
2018-05-13T23:38:27.057Z,99.90
2018-05-13T23:40:56.559Z,99.90
2018-05-13T23:43:25.777Z,99.90
2018-05-13T23:45:55.481Z,99.90
2018-05-13T23:48:25.286Z,99.90
2018-05-13T23:50:54.785Z,99.90
2018-05-13T23:53:24.574Z,99.90
2018-05-13T23:55:54.122Z,99.90
2018-05-13T23:58:23.668Z,99.90
